Stations météo

réclame
Mon MeteoGroup
La Molina, Espagne (8117): Température de l'air & dewpoint: 17.10.2017 06:00:00 - 23.10.2017 06:00:00 (CEST)La Molina, Espagne (8117): Vitesse du vent & gusts: 17.10.2017 06:00:00 - 23.10.2017 06:00:00 (CEST)La Molina, Espagne (8117): Direction du vent: 17.10.2017 06:00:00 - 23.10.2017 06:00:00 (CEST)La Molina, Espagne (8117): visibility: 17.10.2017 06:00:00 - 23.10.2017 06:00:00 (CEST)La Molina, Espagne (8117): Ensoleillement: 17.10.2017 06:00:00 - 23.10.2017 06:00:00 (CEST)La Molina, Espagne (8117): Quantités de précipitations: 17.10.2017 06:00:00 - 23.10.2017 06:00:00 (CEST)
Date & Time tt [°C] td [°C] ff [km/h] ff [knt] fx [km/h] fx [knt] dd vv [km] sd [min] rr [mm]
23.10.2017 06:00:00 - - - - - - - - - -
23.10.2017 05:00:00 2,7 -1,6 1 1 9 5 S 20 0 0,0
23.10.2017 04:00:00 3,2 -1,5 6 3 16 9 S 20 0 0,0
23.10.2017 03:00:00 3,1 -1,6 7 4 16 9 SSW 20 0 0,0
23.10.2017 02:00:00 3,2 -1,5 8 4 19 10 SSW 20 0 -
23.10.2017 01:00:00 3,4 -1,3 7 4 17 9 SSW 20 0 0,0
23.10.2017 00:00:00 3,3 -1,1 8 4 20 11 S 20 0 0,0
22.10.2017 23:00:00 4,2 -1,8 4 2 19 10 W 20 0 0,0
22.10.2017 22:00:00 4,4 -2,2 11 6 21 12 SSW 19 0 0,0
22.10.2017 21:00:00 3,9 -1,0 7 4 13 7 SSW 20 0 0,0
22.10.2017 20:00:00 5,1 -1,1 5 3 14 7 E 20 0 -
22.10.2017 19:00:00 5,7 0,9 5 3 10 5 SE 20 0 0,0
22.10.2017 18:00:00 9,8 0,7 4 2 22 12 W 19 42 0,0
22.10.2017 17:00:00 12,2 0,0 7 4 16 9 WNW 20 60 0,0
22.10.2017 16:00:00 12,0 1,1 8 4 23 13 WNW 20 60 0,0
22.10.2017 15:00:00 11,1 1,3 12 6 20 11 NW 20 60 0,0
22.10.2017 14:00:00 10,8 1,3 10 6 18 10 NW 20 60 -
22.10.2017 13:00:00 9,8 -0,3 7 4 15 8 NW 20 60 0,0
22.10.2017 12:00:00 8,5 -0,2 4 2 16 9 W 20 52 0,0
22.10.2017 11:00:00 6,4 3,0 5 3 11 6 SSE 20 60 0,0
22.10.2017 10:00:00 3,6 2,3 4 2 8 4 SSE 20 8 0,0
22.10.2017 09:00:00 4,1 2,1 2 1 10 6 E 20 0 0,0
22.10.2017 08:00:00 4,2 3,0 9 5 15 8 ESE 20 0 -
22.10.2017 07:00:00 5,4 5,4 3 2 10 5 SW 15 0 0,0
22.10.2017 06:00:00 5,6 4,6 4 2 20 11 ESE 20 0 0,0
22.10.2017 05:00:00 6,8 6,8 4 2 8 5 N 10 0 0,0
22.10.2017 04:00:00 7,2 6,8 3 2 14 8 ENE 20 0 0,0
22.10.2017 03:00:00 7,2 6,1 4 2 13 7 SE 20 0 0,0
22.10.2017 02:00:00 8,1 6,1 7 4 12 6 ESE 20 0 -
22.10.2017 01:00:00 8,5 6,1 6 3 13 7 W 20 0 0,0
22.10.2017 00:00:00 8,2 6,8 5 3 9 5 SE 20 0 0,0
21.10.2017 23:00:00 8,5 6,7 3 2 11 6 ESE 20 0 0,0
21.10.2017 22:00:00 8,7 7,3 4 2 14 8 E 20 0 0,0
21.10.2017 21:00:00 10,4 7,6 5 3 16 9 SW 20 0 0,0
21.10.2017 20:00:00 10,0 8,0 4 2 18 10 E 20 0 -
21.10.2017 19:00:00 11,0 7,7 6 3 20 11 S 20 0 0,0
21.10.2017 18:00:00 11,7 7,8 12 6 32 18 S 20 0 0,0
21.10.2017 17:00:00 12,1 8,4 19 10 37 20 SSE 20 43 0,0
21.10.2017 16:00:00 13,7 8,4 16 9 30 16 SSE 20 58 0,0
21.10.2017 15:00:00 13,6 8,0 13 7 30 16 SSE 20 58 0,0
21.10.2017 14:00:00 14,0 7,5 10 5 35 19 SSW 20 60 -
21.10.2017 13:00:00 14,5 7,1 6 4 32 17 ESE 20 60 0,0
21.10.2017 12:00:00 12,6 7,7 4 2 10 5 S 20 53 0,0
21.10.2017 11:00:00 10,9 6,5 6 3 13 7 S 20 60 0,0
21.10.2017 10:00:00 7,3 5,3 10 5 16 8 S 20 9 0,0
21.10.2017 09:00:00 5,7 5,8 5 3 11 6 ENE 8 0 0,0
21.10.2017 08:00:00 5,3 5,0 4 2 10 6 SSE 20 0 -
21.10.2017 07:00:00 6,6 6,4 8 4 11 6 SE 20 0 0,0
21.10.2017 06:00:00 6,9 6,7 4 2 7 4 SE 20 0 0,0
21.10.2017 05:00:00 7,6 7,3 2 1 9 5 SSE 20 0 0,0
21.10.2017 04:00:00 7,9 7,9 5 3 10 5 S 20 0 0,0
21.10.2017 03:00:00 8,0 8,0 2 1 8 5 ENE 20 0 0,0
21.10.2017 02:00:00 7,9 7,8 1 1 8 5 S 13 0 -
21.10.2017 01:00:00 7,7 7,7 1 1 5 3 ESE 17 0 0,0
21.10.2017 00:00:00 7,6 7,6 1 1 9 5 ESE 14 0 0,0
20.10.2017 23:00:00 7,8 7,6 5 3 8 5 SE 19 0 0,0
20.10.2017 22:00:00 7,9 7,6 5 3 9 5 ESE 20 0 0,0
20.10.2017 21:00:00 8,5 8,1 3 2 8 5 SE 19 0 0,0
20.10.2017 20:00:00 9,8 8,5 4 2 8 4 SE 20 0 -
20.10.2017 19:00:00 10,9 8,8 2 1 17 9 NE 14 0 0,0
20.10.2017 18:00:00 11,9 8,4 4 2 20 11 S 10 0 0,0
20.10.2017 17:00:00 12,4 8,3 10 5 20 11 S 20 40 0,0
20.10.2017 16:00:00 12,3 8,4 6 3 22 12 E 20 6 0,0
20.10.2017 15:00:00 12,7 7,4 11 6 22 12 ESE 20 48 0,0
20.10.2017 14:00:00 13,8 7,3 6 3 21 12 E 20 54 -
20.10.2017 13:00:00 13,6 8,2 5 3 21 11 SSE 11 60 0,0
20.10.2017 12:00:00 12,8 7,9 5 3 14 8 SE 20 60 0,0
20.10.2017 11:00:00 10,5 8,3 4 2 6 4 S 20 60 0,0
20.10.2017 10:00:00 7,9 7,6 3 2 10 5 SSE 20 10 0,0
20.10.2017 09:00:00 7,0 6,3 5 3 16 9 S 20 0 0,0
20.10.2017 08:00:00 7,0 5,8 10 5 16 9 S 20 0 -
20.10.2017 07:00:00 6,9 5,9 13 7 17 9 S 20 0 0,0
20.10.2017 06:00:00 6,2 5,9 5 3 13 7 SSW 20 0 0,0
20.10.2017 05:00:00 6,5 6,2 7 4 20 11 SSW 20 0 0,0
20.10.2017 04:00:00 6,1 6,1 6 4 10 5 S 20 0 0,0
20.10.2017 03:00:00 6,1 6,1 5 3 10 5 SE 20 0 0,0
20.10.2017 02:00:00 6,2 5,9 7 4 10 5 ESE 20 0 -
20.10.2017 01:00:00 6,9 6,4 5 3 10 6 ENE 20 0 0,0
20.10.2017 00:00:00 7,9 7,1 8 4 21 11 SSE 20 0 0,0
19.10.2017 23:00:00 7,6 7,4 6 3 9 5 SSW 20 0 0,2
19.10.2017 22:00:00 7,7 7,6 6 4 21 11 N 8 0 0,6
19.10.2017 21:00:00 7,7 7,1 8 4 27 15 SSE 20 0 0,0
19.10.2017 20:00:00 7,9 6,8 13 7 26 14 SE 20 0 -
19.10.2017 19:00:00 7,3 7,2 4 2 13 7 WNW 10 0 1,0
19.10.2017 18:00:00 7,3 6,9 3 2 20 11 S 4,2 0 3,0
19.10.2017 17:00:00 7,6 6,7 8 4 19 11 S 10 0 1,0
19.10.2017 16:00:00 7,6 7,0 7 4 22 12 SSE 18 0 1,2
19.10.2017 15:00:00 7,3 7,0 5 3 17 9 W 4,4 0 1,2
19.10.2017 14:00:00 7,7 7,0 7 4 23 12 NNE 19 1 -
19.10.2017 13:00:00 7,4 7,1 6 3 19 10 N 13 0 0,6
19.10.2017 12:00:00 6,3 6,2 3 1 16 9 WNW 1,5 0 0,4
19.10.2017 11:00:00 6,1 5,1 2 1 5 3 NE 6 0 0,8
19.10.2017 10:00:00 5,4 5,0 3 1 6 3 E 8 0 0,6
19.10.2017 09:00:00 4,9 4,8 4 2 6 4 SSE 9 0 0,8
19.10.2017 08:00:00 5,1 4,8 4 2 9 5 SE 9 0 -
19.10.2017 07:00:00 5,2 4,3 4 2 21 12 SE 7 0 2,8
19.10.2017 06:00:00 6,4 5,7 6 4 20 11 ESE 4,0 0 3,4
19.10.2017 05:00:00 6,8 5,6 10 5 21 11 ENE 9 0 1,0
19.10.2017 04:00:00 7,1 5,9 8 5 28 15 E 13 0 1,8
19.10.2017 03:00:00 7,5 5,6 11 6 33 18 ESE 7 0 0,4
19.10.2017 02:00:00 7,9 7,3 10 5 32 17 E 3,8 0 -
19.10.2017 01:00:00 7,4 7,3 5 3 25 13 SSW 3,7 0 1,4
19.10.2017 00:00:00 7,3 7,2 9 5 47 25 E 14 0 0,6
18.10.2017 23:00:00 7,8 6,7 23 12 53 29 ESE 6 0 7,4
18.10.2017 22:00:00 7,8 6,4 15 8 58 31 ESE 7 0 9,8
18.10.2017 21:00:00 7,4 6,1 8 4 48 26 SW 4,6 0 13,6
18.10.2017 20:00:00 8,6 7,8 6 4 46 25 SE 11 0 -
18.10.2017 19:00:00 8,8 7,6 16 9 61 33 SE 20 0 6,2
18.10.2017 18:00:00 9,3 7,7 18 10 35 19 ESE 7 0 0,8
18.10.2017 17:00:00 9,6 7,5 8 4 49 27 E 20 0 1,0
18.10.2017 16:00:00 9,9 7,8 11 6 57 31 E 15 0 0,2
18.10.2017 15:00:00 10,1 8,4 19 10 38 21 ESE 12 0 0,2
18.10.2017 14:00:00 11,5 8,0 6 4 36 19 NNW 20 1 -
18.10.2017 13:00:00 11,4 7,7 6 4 32 18 WSW 20 11 0,0
18.10.2017 12:00:00 10,0 7,9 6 4 26 14 NNE 20 5 0,0
18.10.2017 11:00:00 10,8 7,5 7 4 24 13 SW 20 7 0,0
18.10.2017 10:00:00 10,7 6,7 7 4 27 14 SSW 20 8 0,0
18.10.2017 09:00:00 8,6 5,9 4 2 17 9 N 20 0 0,0
18.10.2017 08:00:00 7,3 5,0 6 4 16 9 S 20 0 -
18.10.2017 07:00:00 7,4 4,6 4 2 13 7 SE 20 0 0,0
18.10.2017 06:00:00 6,8 4,6 5 3 13 7 ESE 20 0 0,0
18.10.2017 05:00:00 6,2 5,3 7 4 11 6 ESE 16 0 0,0
18.10.2017 04:00:00 6,7 5,9 6 4 13 7 ESE 14 0 0,0
18.10.2017 03:00:00 5,9 5,0 4 2 8 5 E 20 0 0,0
18.10.2017 02:00:00 5,6 3,4 5 3 10 5 SE 20 0 -
18.10.2017 01:00:00 5,9 3,6 7 4 11 6 ESE 20 0 0,0
18.10.2017 00:00:00 6,3 3,4 7 4 12 6 ESE 20 0 0,0
17.10.2017 23:00:00 6,3 3,1 6 4 11 6 ESE 20 0 0,0
17.10.2017 22:00:00 7,4 3,1 8 5 13 7 SE 20 0 0,0
17.10.2017 21:00:00 9,4 4,6 11 6 28 15 SSE 20 0 0,0
17.10.2017 20:00:00 9,8 5,6 14 8 35 19 SSE 20 0 -
17.10.2017 19:00:00 10,3 6,8 14 7 31 17 S 20 0 0,0
17.10.2017 18:00:00 11,3 6,7 16 8 28 15 S 20 5 0,0
17.10.2017 17:00:00 14,0 7,1 14 7 26 14 S 20 54 0,0
17.10.2017 16:00:00 15,5 7,0 10 6 24 13 S 20 60 0,0
17.10.2017 15:00:00 15,6 5,2 10 5 25 13 SSE 20 60 0,0
17.10.2017 14:00:00 16,0 -1,1 13 7 22 12 SSE 20 60 -
17.10.2017 13:00:00 16,6 -4,0 7 4 14 8 ESE 20 60 0,0
17.10.2017 12:00:00 15,2 -3,6 4 2 10 5 N 13 56 0,0
17.10.2017 11:00:00 13,2 -2,7 4 2 10 5 S 11 60 0,0
17.10.2017 10:00:00 8,1 -4,0 4 2 9 5 SE 20 14 0,0
17.10.2017 09:00:00 7,1 -5,5 4 2 9 5 SE 20 0 0,0
17.10.2017 08:00:00 7,2 -6,5 4 2 9 5 SE 20 0 -
17.10.2017 07:00:00 6,5 -2,4 7 4 10 6 ESE 20 0 0,0
17.10.2017 06:00:00 6,6 -4,7 5 3 11 6 ESE 20 0 0,0

tt = Température de l'air
td = dewpoint
ff = Vitesse du vent
fx = gusts
dd = Direction du vent
vv = visibility
sd = Ensoleillement
rr = Quantités de précipitations

stations d'obs. à proximité